Du har inga inställningar för hoppväder.nu

Hoppväder.nu

Senast uppdaterat 01:13

UTC-tid

2019-12-06 kl. 00:13


Sol och måne

Solen går upp 8:21 och går ner 15:29 (beräknade cirkatider)
Nästa fullmåne blir om 6 dagar (2019-12-12)

METAR

ESMK (Everöd)
(23 minuter sedan)
ESMK 052350Z AUTO 22014G26KT 9999 BKN012/// OVC017/// 06/04 Q1003=



ESMS (Malmö)
(23 minuter sedan)
ESMS 052350Z 23018G29KT 9999 OVC010 06/04 Q1004=



ESMX (Växjö)
(23 minuter sedan)
ESMX 052350Z AUTO 21017KT 9999 -RA OVC011/// 05/04 Q0999 RESHUP RERA=



ESDF (Ronneby)
(23 minuter sedan)
ESDF 052350Z AUTO 23012KT 200V260 9999 OVC028/// 06/03 Q1003=



EKRN (Rønne, Bornholm)
(23 minuter sedan)
EKRN 052350Z AUTO 23021G31KT 9999 OVC009/// 06/05 Q1006=



TAF

ESMK (Everöd)
(430 minuter sedan)
ESMK 051703Z 0518/0521 24012KT 9999 BKN018 TEMPO 0518/0521 24015G25KT BKN012=



ESMS (Malmö)
(73 minuter sedan)
ESMS 052300Z 0600/0624 22018KT 8000 -RADZ BKN008 TEMPO 0600/0608 24020G32KT 3000 RADZ BR SCT008 BKN012 BECMG 0608/0610 2000 BR BKN003 TEMPO 0610/0620 24018G30KT 6000 NSW BKN008 TEMPO 0620/0624 22015G28KT 6000 SHRA BKN008 SCT015CB=



ESMX (Växjö)
(403 minuter sedan)
ESMX 051730Z 0518/0522 22010KT 9999 SCT004 BKN015 PROB40 0518/0520 BKN012 TEMPO 0520/0522 4000 RA DZ BKN009=



ESDF (Ronneby)
(298 minuter sedan)
ESDF COR 051915Z 0519/0523 24012G22KT 9999 BKN015 PROB40 0519/0523 -SHRA BKN009=



EKRN (Rønne, Bornholm)
(428 minuter sedan)
EKRN 051705Z 0518/0523 24018KT 8000 BKN015 TEMPO 0518/0523 24020G32KT BKN008=





Kodnycklar till TAF och METAR






LHP

(Everöd är område J3b i Hela Område E)

Prognos är inte uppdaterad




Spotting

Hur fungerar spotthjälpen och Vindkartan?

Markvind är ca 0 m/s.



Vindkartan

Senast uppdaterad 01:13




All data kommer från LFV.se